createdAt,value
2023-05-16T00:01:54.685Z,14.07
2023-05-16T00:05:00.053Z,14.00
2023-05-16T00:08:05.548Z,14.06
2023-05-16T00:11:11.441Z,13.90
2023-05-16T00:14:16.407Z,13.82
2023-05-16T00:17:22.958Z,13.78
2023-05-16T00:20:28.751Z,14.01
2023-05-16T00:23:34.458Z,14.04
2023-05-16T00:26:39.457Z,13.95
2023-05-16T00:29:44.545Z,13.75
2023-05-16T00:32:51.007Z,13.91
2023-05-16T00:35:56.000Z,13.86
2023-05-16T00:39:01.275Z,13.85
2023-05-16T00:42:06.822Z,13.84
2023-05-16T00:45:13.313Z,13.78
2023-05-16T00:48:19.852Z,13.88
2023-05-16T00:51:27.583Z,13.74
2023-05-16T00:54:32.943Z,13.92
2023-05-16T00:57:38.222Z,13.84
2023-05-16T01:00:43.400Z,13.70
2023-05-16T01:03:49.869Z,13.89
2023-05-16T01:06:55.485Z,13.81
2023-05-16T01:10:00.648Z,13.91
2023-05-16T01:13:13.833Z,13.78
2023-05-16T01:16:27.655Z,13.78
2023-05-16T01:19:52.699Z,13.65
2023-05-16T01:23:20.050Z,13.48
2023-05-16T01:26:30.151Z,13.64
2023-05-16T01:29:35.405Z,13.50
2023-05-16T01:32:40.581Z,13.49
2023-05-16T01:35:54.451Z,13.61
2023-05-16T01:39:04.780Z,13.63
2023-05-16T01:42:14.310Z,13.59
2023-05-16T01:45:24.817Z,13.56
2023-05-16T01:48:35.252Z,13.62
2023-05-16T01:51:41.664Z,13.73
2023-05-16T01:54:48.476Z,13.57
2023-05-16T01:57:55.762Z,13.77
2023-05-16T02:01:03.853Z,13.65
2023-05-16T02:04:09.464Z,13.63
2023-05-16T02:07:15.232Z,13.68
2023-05-16T02:10:21.361Z,13.68
2023-05-16T02:13:27.850Z,13.52
2023-05-16T02:16:34.915Z,13.60
2023-05-16T02:19:39.966Z,13.70
2023-05-16T02:22:47.466Z,13.60
2023-05-16T02:25:52.531Z,13.61
2023-05-16T02:29:01.492Z,13.61
2023-05-16T02:32:07.179Z,13.53
2023-05-16T02:35:12.960Z,13.54
2023-05-16T02:38:18.202Z,13.55
2023-05-16T02:41:23.322Z,13.52
2023-05-16T02:44:29.695Z,13.50
2023-05-16T02:47:37.203Z,13.50
2023-05-16T02:50:42.861Z,13.48
2023-05-16T02:53:47.941Z,13.66
2023-05-16T02:56:53.625Z,13.59
2023-05-16T03:00:00.351Z,13.58
2023-05-16T03:03:05.611Z,13.55
2023-05-16T03:06:11.569Z,13.54
2023-05-16T03:09:16.578Z,13.62
2023-05-16T03:12:21.761Z,13.53
2023-05-16T03:15:28.556Z,13.64
2023-05-16T03:18:34.831Z,13.78
2023-05-16T03:21:40.645Z,13.76
2023-05-16T03:24:45.689Z,13.79
2023-05-16T03:27:50.772Z,13.78
2023-05-16T03:30:58.809Z,13.82
2023-05-16T03:34:03.909Z,13.73
2023-05-16T03:37:11.019Z,13.80
2023-05-16T03:40:16.302Z,13.77
2023-05-16T03:43:21.410Z,13.88
2023-05-16T03:46:27.897Z,13.87
2023-05-16T03:49:33.003Z,13.81
2023-05-16T03:52:38.987Z,13.85
2023-05-16T03:55:44.021Z,13.89
2023-05-16T03:58:49.007Z,13.88
2023-05-16T04:01:55.680Z,13.96
2023-05-16T04:05:00.680Z,13.95
2023-05-16T04:08:05.986Z,14.01
2023-05-16T04:11:12.832Z,13.95
2023-05-16T04:14:17.865Z,13.96
2023-05-16T04:17:24.412Z,13.90
2023-05-16T04:20:32.801Z,13.98
2023-05-16T04:23:37.658Z,13.98
2023-05-16T04:26:42.624Z,13.97
2023-05-16T04:29:48.118Z,13.93
2023-05-16T04:32:54.615Z,13.81
2023-05-16T04:36:00.175Z,13.64
2023-05-16T04:39:05.328Z,13.75
2023-05-16T04:42:11.587Z,13.75
2023-05-16T04:45:16.838Z,13.56
2023-05-16T04:48:23.149Z,13.66
2023-05-16T04:51:28.226Z,13.74
2023-05-16T04:54:33.801Z,13.72
2023-05-16T04:57:38.877Z,13.89
2023-05-16T05:00:44.469Z,13.75
2023-05-16T05:03:50.938Z,13.65
2023-05-16T05:06:56.041Z,13.51
2023-05-16T05:10:01.096Z,13.44
2023-05-16T05:13:06.184Z,13.48
2023-05-16T05:16:11.808Z,13.55
2023-05-16T05:19:18.274Z,13.55
2023-05-16T05:22:23.314Z,13.51
2023-05-16T05:25:28.675Z,13.50
2023-05-16T05:28:33.848Z,13.44
2023-05-16T05:31:38.960Z,13.40
2023-05-16T05:34:45.439Z,13.33
2023-05-16T05:37:50.384Z,13.29
2023-05-16T05:40:55.381Z,13.34
2023-05-16T05:44:00.313Z,13.30
2023-05-16T05:47:05.937Z,13.44
2023-05-16T05:50:14.748Z,13.48
2023-05-16T05:53:19.806Z,13.29
2023-05-16T05:56:25.808Z,13.22
2023-05-16T05:59:31.065Z,13.35
2023-05-16T06:02:36.556Z,13.22
2023-05-16T06:05:45.291Z,13.21
2023-05-16T06:08:50.316Z,13.15
2023-05-16T06:11:55.571Z,13.19
2023-05-16T06:15:00.505Z,13.28
2023-05-16T06:18:05.995Z,13.28
2023-05-16T06:21:12.447Z,13.44
2023-05-16T06:24:18.530Z,13.63
2023-05-16T06:27:23.649Z,13.33
2023-05-16T06:30:28.802Z,13.40
2023-05-16T06:33:34.083Z,13.47
2023-05-16T06:36:40.569Z,13.52
2023-05-16T06:39:45.692Z,13.50
2023-05-16T06:42:50.716Z,13.40
2023-05-16T06:45:55.739Z,13.36
2023-05-16T06:49:00.774Z,13.31
2023-05-16T06:52:07.787Z,13.30
2023-05-16T06:55:13.561Z,13.34
2023-05-16T06:58:19.137Z,13.28
2023-05-16T07:01:24.346Z,13.29
2023-05-16T07:04:29.458Z,13.24
2023-05-16T07:07:36.419Z,13.32
2023-05-16T07:10:41.565Z,13.47
2023-05-16T07:13:46.596Z,13.39
2023-05-16T07:16:51.604Z,13.42
2023-05-16T07:19:56.614Z,13.38
2023-05-16T07:23:03.076Z,13.47
2023-05-16T07:26:08.202Z,13.39
2023-05-16T07:29:14.609Z,13.47
2023-05-16T07:32:19.977Z,13.49
2023-05-16T07:35:25.311Z,13.60
2023-05-16T07:38:31.903Z,13.57
2023-05-16T07:41:36.877Z,13.70
2023-05-16T07:44:41.916Z,13.63
2023-05-16T07:47:47.168Z,13.70
2023-05-16T07:50:53.843Z,13.64
2023-05-16T07:54:01.956Z,13.67
2023-05-16T07:57:07.497Z,13.71
2023-05-16T08:00:15.182Z,13.79
2023-05-16T08:03:20.572Z,13.91
2023-05-16T08:06:25.743Z,13.96
2023-05-16T08:09:32.615Z,14.13
2023-05-16T08:12:37.705Z,14.09
2023-05-16T08:15:42.952Z,14.14
2023-05-16T08:18:48.031Z,14.14
2023-05-16T08:21:53.167Z,14.10
2023-05-16T08:25:00.671Z,14.08
2023-05-16T08:28:05.830Z,14.04
2023-05-16T08:31:12.792Z,14.05
2023-05-16T08:34:17.949Z,14.06
2023-05-16T08:37:23.016Z,13.99
2023-05-16T08:40:31.505Z,14.01
2023-05-16T08:43:37.038Z,14.01
2023-05-16T08:46:43.320Z,14.07
2023-05-16T08:49:50.089Z,14.01
2023-05-16T08:52:55.336Z,13.96
2023-05-16T08:56:02.385Z,13.99
2023-05-16T08:59:07.862Z,13.89
2023-05-16T09:02:16.023Z,13.89
2023-05-16T09:05:21.189Z,13.96
2023-05-16T09:08:26.519Z,14.12
2023-05-16T09:11:35.035Z,14.18
2023-05-16T09:14:41.134Z,14.16
2023-05-16T09:17:47.483Z,14.30
2023-05-16T09:20:54.381Z,14.26
2023-05-16T09:24:03.755Z,14.10
2023-05-16T09:27:14.152Z,14.18
2023-05-16T09:30:19.855Z,14.00
2023-05-16T09:33:25.067Z,14.02
2023-05-16T09:36:30.224Z,14.08
2023-05-16T09:39:35.423Z,14.00
2023-05-16T09:42:42.021Z,14.05
2023-05-16T09:45:49.195Z,14.09
2023-05-16T09:48:54.359Z,14.04
2023-05-16T09:52:02.565Z,14.04
2023-05-16T09:55:09.216Z,14.04
2023-05-16T09:58:19.695Z,14.07
2023-05-16T10:01:26.412Z,14.14
2023-05-16T10:04:31.696Z,14.21
2023-05-16T10:07:37.134Z,14.33
2023-05-16T10:10:42.521Z,14.17
2023-05-16T10:13:53.317Z,14.18
2023-05-16T10:16:59.941Z,14.23
2023-05-16T10:20:09.364Z,14.21
2023-05-16T10:23:19.916Z,14.26
2023-05-16T10:26:26.072Z,14.24
2023-05-16T10:29:40.068Z,14.38
2023-05-16T10:32:52.346Z,14.24
2023-05-16T10:35:58.046Z,14.23
2023-05-16T10:39:04.019Z,14.26
2023-05-16T10:42:09.418Z,14.26
2023-05-16T10:45:20.942Z,14.24
2023-05-16T10:48:33.144Z,14.14
2023-05-16T10:51:39.502Z,14.15
2023-05-16T10:54:46.008Z,14.17
2023-05-16T10:57:51.105Z,14.03
2023-05-16T11:01:21.909Z,13.99
2023-05-16T11:04:47.294Z,13.94
2023-05-16T11:08:05.894Z,14.04
2023-05-16T11:11:39.719Z,14.10
2023-05-16T11:14:47.746Z,14.13
2023-05-16T11:18:06.994Z,14.15
2023-05-16T11:21:12.736Z,14.17
2023-05-16T11:24:34.903Z,13.95
2023-05-16T11:27:44.491Z,13.97
2023-05-16T11:30:50.849Z,14.00
2023-05-16T11:33:57.503Z,14.12
2023-05-16T11:37:02.780Z,14.03
2023-05-16T11:40:09.842Z,14.01
2023-05-16T11:43:20.519Z,14.08
2023-05-16T11:46:26.009Z,14.07
2023-05-16T11:49:32.217Z,14.08
2023-05-16T11:52:37.596Z,14.03
2023-05-16T11:55:43.664Z,14.05
2023-05-16T11:58:49.060Z,14.10
2023-05-16T12:01:54.186Z,14.08
2023-05-16T12:05:00.993Z,14.11
2023-05-16T12:08:07.272Z,14.08
2023-05-16T12:11:16.640Z,14.19
2023-05-16T12:14:22.420Z,14.22
2023-05-16T12:17:27.578Z,14.16
2023-05-16T12:20:34.314Z,14.28
2023-05-16T12:23:39.335Z,14.28
2023-05-16T12:26:44.800Z,14.41
2023-05-16T12:29:49.882Z,14.31
2023-05-16T12:32:57.295Z,14.36
2023-05-16T12:36:04.812Z,14.40
2023-05-16T12:39:14.051Z,14.50
2023-05-16T12:42:19.129Z,14.45
2023-05-16T12:45:24.579Z,14.45
2023-05-16T12:48:35.775Z,14.44
2023-05-16T12:51:42.400Z,14.34
2023-05-16T12:54:47.427Z,14.35
2023-05-16T12:57:52.859Z,14.40
2023-05-16T13:00:57.842Z,14.37
2023-05-16T13:04:04.751Z,14.32
2023-05-16T13:07:12.074Z,14.46
2023-05-16T13:10:17.208Z,14.41
2023-05-16T13:13:35.400Z,14.46
2023-05-16T13:16:41.291Z,14.59
2023-05-16T13:19:48.248Z,14.48
2023-05-16T13:22:55.849Z,14.53
2023-05-16T13:26:00.916Z,14.46
2023-05-16T13:29:07.492Z,14.44
2023-05-16T13:32:13.852Z,14.42
2023-05-16T13:35:19.330Z,14.39
2023-05-16T13:38:26.252Z,14.45
2023-05-16T13:41:32.579Z,14.53
2023-05-16T13:44:37.665Z,14.62
2023-05-16T13:47:46.221Z,14.81
2023-05-16T13:50:53.582Z,14.77
2023-05-16T13:54:00.010Z,14.84
2023-05-16T13:57:05.279Z,14.82
2023-05-16T14:00:42.740Z,14.85
2023-05-16T14:03:42.128Z,14.90
2023-05-16T14:06:47.121Z,14.83
2023-05-16T14:09:53.472Z,15.06
2023-05-16T14:12:58.721Z,15.03
2023-05-16T14:16:03.746Z,14.87
2023-05-16T14:19:09.181Z,15.00
2023-05-16T14:22:15.353Z,15.01
2023-05-16T14:25:21.930Z,14.99
2023-05-16T14:28:26.953Z,14.90
2023-05-16T14:31:32.334Z,14.90
2023-05-16T14:34:37.345Z,14.82
2023-05-16T14:37:42.516Z,14.82
2023-05-16T14:40:49.061Z,14.86
2023-05-16T14:43:54.137Z,14.88
2023-05-16T14:46:59.081Z,15.05
2023-05-16T14:50:04.211Z,15.13
2023-05-16T14:53:09.636Z,15.13
2023-05-16T14:56:16.970Z,15.06
2023-05-16T14:59:21.899Z,15.03
2023-05-16T15:02:27.972Z,15.05
2023-05-16T15:05:33.182Z,15.18
2023-05-16T15:08:38.543Z,15.27
2023-05-16T15:11:44.920Z,15.16
2023-05-16T15:14:50.067Z,15.11
2023-05-16T15:17:55.165Z,15.10
2023-05-16T15:21:00.264Z,15.14
2023-05-16T15:24:05.650Z,15.22
2023-05-16T15:27:12.852Z,15.21
2023-05-16T15:30:17.904Z,15.34
2023-05-16T15:33:22.946Z,15.36
2023-05-16T15:36:27.975Z,15.38
2023-05-16T15:39:33.411Z,15.42
2023-05-16T15:42:39.805Z,15.31
2023-05-16T15:45:45.879Z,15.10
2023-05-16T15:48:50.865Z,15.16
2023-05-16T15:51:56.221Z,15.07
2023-05-16T15:55:01.414Z,15.04
2023-05-16T15:58:08.261Z,15.18
2023-05-16T16:01:13.527Z,14.97
2023-05-16T16:04:22.438Z,14.96
2023-05-16T16:07:28.309Z,15.00
2023-05-16T16:10:33.245Z,15.02
2023-05-16T16:13:39.688Z,15.06
2023-05-16T16:16:45.614Z,15.08
2023-05-16T16:19:50.700Z,15.07
2023-05-16T16:22:55.963Z,14.98
2023-05-16T16:26:01.430Z,15.05
2023-05-16T16:29:08.273Z,14.84
2023-05-16T16:32:14.600Z,14.81
2023-05-16T16:35:19.740Z,14.73
2023-05-16T16:38:24.673Z,14.86
2023-05-16T16:41:29.784Z,14.79
2023-05-16T16:44:36.179Z,14.86
2023-05-16T16:47:41.701Z,14.89
2023-05-16T16:50:47.266Z,14.93
2023-05-16T16:53:52.342Z,14.95
2023-05-16T16:56:57.899Z,14.80
2023-05-16T17:00:04.510Z,14.84
2023-05-16T17:03:10.539Z,14.97
2023-05-16T17:06:15.753Z,14.86
2023-05-16T17:09:21.429Z,15.00
2023-05-16T17:12:28.510Z,14.92
2023-05-16T17:15:35.054Z,15.03
2023-05-16T17:18:40.728Z,14.92
2023-05-16T17:21:47.463Z,14.87
2023-05-16T17:24:52.773Z,15.04
2023-05-16T17:27:58.144Z,14.93
2023-05-16T17:31:04.731Z,14.92
2023-05-16T17:34:09.765Z,15.05
2023-05-16T17:37:14.892Z,15.19
2023-05-16T17:40:19.970Z,15.22
2023-05-16T17:43:25.715Z,15.27
2023-05-16T17:46:32.331Z,15.21
2023-05-16T17:49:37.493Z,15.22
2023-05-16T17:52:42.474Z,15.31
2023-05-16T17:55:47.619Z,15.24
2023-05-16T17:58:53.498Z,15.22
2023-05-16T18:01:59.948Z,15.38
2023-05-16T18:05:05.120Z,15.43
2023-05-16T18:08:10.184Z,15.37
2023-05-16T18:11:15.174Z,15.38
2023-05-16T18:14:20.399Z,15.42
2023-05-16T18:17:27.345Z,15.44
2023-05-16T18:20:32.675Z,15.44
2023-05-16T18:23:38.421Z,15.28
2023-05-16T18:26:44.364Z,15.29
2023-05-16T18:29:49.512Z,15.28
2023-05-16T18:32:56.144Z,15.24
2023-05-16T18:36:01.171Z,15.20
2023-05-16T18:39:07.173Z,15.20
2023-05-16T18:42:12.321Z,15.06
2023-05-16T18:45:17.421Z,14.98
2023-05-16T18:48:23.819Z,15.00
2023-05-16T18:51:28.961Z,14.98
2023-05-16T18:54:34.037Z,14.96
2023-05-16T18:57:39.205Z,14.93
2023-05-16T19:00:44.228Z,14.96
2023-05-16T19:03:50.764Z,14.96
2023-05-16T19:07:03.081Z,14.88
2023-05-16T19:10:11.275Z,14.85
2023-05-16T19:13:16.281Z,14.76
2023-05-16T19:16:21.445Z,14.76
2023-05-16T19:19:27.998Z,14.70
2023-05-16T19:22:33.217Z,14.69
2023-05-16T19:25:38.126Z,14.58
2023-05-16T19:28:43.147Z,14.64
2023-05-16T19:31:48.129Z,14.61
2023-05-16T19:34:54.759Z,14.63
2023-05-16T19:38:00.370Z,14.49
2023-05-16T19:41:05.355Z,14.50
2023-05-16T19:44:12.049Z,14.48
2023-05-16T19:47:17.184Z,14.45
2023-05-16T19:50:23.540Z,14.32
2023-05-16T19:53:28.565Z,14.31
2023-05-16T19:56:33.523Z,14.43
2023-05-16T19:59:38.675Z,14.40
2023-05-16T20:02:43.906Z,14.34
2023-05-16T20:05:50.453Z,14.41
2023-05-16T20:08:55.993Z,14.50
2023-05-16T20:12:01.331Z,14.39
2023-05-16T20:15:08.381Z,14.36
2023-05-16T20:18:14.229Z,14.32
2023-05-16T20:21:20.780Z,14.39
2023-05-16T20:24:25.950Z,14.41
2023-05-16T20:27:31.949Z,14.24
2023-05-16T20:30:37.121Z,14.22
2023-05-16T20:33:42.480Z,14.41
2023-05-16T20:36:49.081Z,14.36
2023-05-16T20:39:54.698Z,14.36
2023-05-16T20:42:59.408Z,14.33
2023-05-16T20:46:04.360Z,14.41
2023-05-16T20:49:09.441Z,14.19
2023-05-16T20:52:16.544Z,14.28
2023-05-16T20:55:21.558Z,14.32
2023-05-16T20:58:26.515Z,14.14
2023-05-16T21:01:31.595Z,14.12
2023-05-16T21:04:36.605Z,14.01
2023-05-16T21:07:43.464Z,14.05
2023-05-16T21:10:48.749Z,13.96
2023-05-16T21:13:53.842Z,13.92
2023-05-16T21:16:58.772Z,13.87
2023-05-16T21:20:03.902Z,13.81
2023-05-16T21:23:11.093Z,13.89
2023-05-16T21:26:16.359Z,13.91
2023-05-16T21:29:21.820Z,13.96
2023-05-16T21:32:32.028Z,13.75
2023-05-16T21:35:37.233Z,13.84
2023-05-16T21:38:43.717Z,13.91
2023-05-16T21:41:48.668Z,13.87
2023-05-16T21:44:53.601Z,13.80
2023-05-16T21:47:58.598Z,13.84
2023-05-16T21:51:03.860Z,13.83
2023-05-16T21:54:11.022Z,13.85
2023-05-16T21:57:16.089Z,13.81
2023-05-16T22:00:21.364Z,13.86
2023-05-16T22:03:26.559Z,13.86
2023-05-16T22:06:31.611Z,13.87
2023-05-16T22:09:38.234Z,13.92
2023-05-16T22:12:43.274Z,13.83
2023-05-16T22:16:03.403Z,13.90
2023-05-16T22:19:10.887Z,13.86
2023-05-16T22:22:16.113Z,13.92
2023-05-16T22:25:22.568Z,13.95
2023-05-16T22:28:27.854Z,13.90
2023-05-16T22:31:33.604Z,13.80
2023-05-16T22:34:39.821Z,13.84
2023-05-16T22:37:44.861Z,13.82
2023-05-16T22:40:51.454Z,13.86
2023-05-16T22:43:56.432Z,13.69
2023-05-16T22:47:01.623Z,13.70
2023-05-16T22:50:07.396Z,13.56
2023-05-16T22:53:14.666Z,13.70
2023-05-16T22:56:21.161Z,13.54
2023-05-16T22:59:26.792Z,13.59
2023-05-16T23:02:32.359Z,13.51
2023-05-16T23:05:38.178Z,13.65
2023-05-16T23:08:43.213Z,13.72
2023-05-16T23:11:49.672Z,13.64
2023-05-16T23:14:54.680Z,13.74
2023-05-16T23:18:00.006Z,13.79
2023-05-16T23:21:05.271Z,13.85
2023-05-16T23:24:12.765Z,13.79
2023-05-16T23:27:22.636Z,13.80
2023-05-16T23:30:27.891Z,13.74
2023-05-16T23:33:33.171Z,13.80
2023-05-16T23:36:38.214Z,13.84
2023-05-16T23:39:43.381Z,13.76
2023-05-16T23:42:49.984Z,13.84
2023-05-16T23:45:54.951Z,13.74
2023-05-16T23:49:00.254Z,13.70
2023-05-16T23:52:06.115Z,13.75
2023-05-16T23:55:12.478Z,13.72
2023-05-16T23:58:18.857Z,13.80
